Time;durP1;ratioP1;P1;durP2;ratioP2;P2;SDS_P1;SDS_P2;PMS_P1;PMS_P2;Temp;Humidity;BMP_temperature;BMP_pressure;BME280_temperature;BME280_humidity;BME280_pressure;Samples;Min_cycle;Max_cycle;Signal;HPM_P1;HPM_P2
2022/11/06 00:01:28;;;;;;;1.40;1.30;;;24.40;60.70;;;;;;5094467;28;20489;-94
2022/11/06 00:03:55;;;;;;;1.63;1.53;;;24.40;60.80;;;;;;5095963;28;20446;-94
2022/11/06 00:09:09;;;;;;;2.07;1.50;;;24.40;60.60;;;;;;5095048;28;20773;-95
2022/11/06 00:11:36;;;;;;;1.40;1.30;;;24.40;60.70;;;;;;5095044;28;20445;-95
2022/11/06 00:14:04;;;;;;;1.83;1.37;;;24.40;60.70;;;;;;5094721;28;20442;-95
2022/11/06 00:16:31;;;;;;;2.83;1.70;;;24.40;60.70;;;;;;5094772;28;20533;-95
2022/11/06 00:19:00;;;;;;;1.60;1.37;;;24.40;60.70;;;;;;5094423;28;20488;-94
2022/11/06 00:21:29;;;;;;;1.20;1.10;;;24.40;60.70;;;;;;5094728;28;20539;-92
2022/11/06 00:23:58;;;;;;;1.30;1.20;;;24.40;60.70;;;;;;5094214;28;20441;-96
2022/11/06 00:26:28;;;;;;;1.60;1.50;;;24.40;60.60;;;;;;5094387;28;20927;-94
2022/11/06 00:28:55;;;;;;;2.20;1.40;;;24.60;60.80;;;;;;5094785;28;20434;-93
2022/11/06 00:31:24;;;;;;;1.90;1.60;;;24.40;60.70;;;;;;5094604;28;20466;-95
2022/11/06 00:33:53;;;;;;;1.43;1.33;;;24.40;60.60;;;;;;5094948;28;20927;-95
2022/11/06 00:36:21;;;;;;;1.57;1.30;;;24.40;60.60;;;;;;5094624;28;20475;-94
2022/11/06 00:38:51;;;;;;;1.47;1.37;;;24.40;60.60;;;;;;5094461;28;20626;-93
2022/11/06 00:41:18;;;;;;;1.60;1.50;;;24.40;60.60;;;;;;5094627;28;20432;-94
2022/11/06 00:43:50;;;;;;;1.30;1.17;;;24.40;60.60;;;;;;5094080;28;20484;-95
2022/11/06 00:46:18;;;;;;;1.50;1.40;;;24.40;60.60;;;;;;5094397;28;20429;-95
2022/11/06 00:48:46;;;;;;;1.30;1.20;;;24.40;60.70;;;;;;5094471;28;20451;-95
2022/11/06 00:51:15;;;;;;;1.40;1.20;;;24.40;60.60;;;;;;5094522;28;20445;-95
2022/11/06 00:53:42;;;;;;;1.30;1.17;;;24.40;60.60;;;;;;5094120;28;20443;-95
2022/11/06 00:56:12;;;;;;;1.27;1.10;;;24.40;60.60;;;;;;5094687;28;20447;-95
2022/11/06 00:58:41;;;;;;;1.30;1.20;;;24.30;60.40;;;;;;5094306;28;20485;-94
2022/11/06 01:01:11;;;;;;;1.40;1.30;;;24.30;60.40;;;;;;5093957;28;20471;-93
2022/11/06 01:03:38;;;;;;;1.60;1.30;;;24.40;60.50;;;;;;5094435;28;20442;-95
2022/11/06 01:06:07;;;;;;;1.33;1.00;;;24.30;60.50;;;;;;5094197;28;20554;-95
2022/11/06 01:08:34;;;;;;;1.47;1.33;;;24.30;60.40;;;;;;5094197;28;20471;-94
2022/11/06 01:11:08;;;;;;;1.77;1.20;;;24.40;61.40;;;;;;5094276;28;20448;-94
2022/11/06 01:13:34;;;;;;;1.30;1.20;;;24.30;60.50;;;;;;5094954;28;20437;-94
2022/11/06 01:16:01;;;;;;;1.40;1.30;;;24.30;60.40;;;;;;5094229;28;20438;-95
2022/11/06 01:18:30;;;;;;;1.60;1.13;;;24.30;60.40;;;;;;5094164;28;20481;-94
2022/11/06 01:20:56;;;;;;;2.67;1.20;;;24.30;60.40;;;;;;5093710;28;20458;-95
2022/11/06 01:23:24;;;;;;;1.50;1.40;;;24.30;60.40;;;;;;5094214;28;20450;-92
2022/11/06 01:25:58;;;;;;;1.10;1.00;;;24.30;60.40;;;;;;5076494;28;20445;-94
2022/11/06 01:28:26;;;;;;;1.73;1.30;;;24.30;60.40;;;;;;5094101;28;20442;-95
2022/11/06 01:30:53;;;;;;;1.30;1.20;;;24.30;60.40;;;;;;5093894;28;20465;-96
2022/11/06 01:33:21;;;;;;;1.27;1.17;;;24.30;60.40;;;;;;5076276;28;20820;-93
2022/11/06 01:35:51;;;;;;;1.30;1.10;;;24.30;60.40;;;;;;5093912;28;20847;-94
2022/11/06 01:38:18;;;;;;;1.17;1.07;;;24.30;60.40;;;;;;5097372;28;20491;-95
2022/11/06 01:40:48;;;;;;;1.20;1.10;;;24.30;60.40;;;;;;5097514;28;20452;-94
2022/11/06 01:43:17;;;;;;;1.27;1.17;;;24.30;60.40;;;;;;5097127;28;20473;-94
2022/11/06 01:45:45;;;;;;;1.23;1.13;;;24.30;60.30;;;;;;5097421;28;20457;-93
2022/11/06 01:48:13;;;;;;;1.40;1.10;;;24.40;60.40;;;;;;5097478;28;20451;-94
2022/11/06 01:50:43;;;;;;;1.40;1.30;;;24.30;60.30;;;;;;5097479;28;20802;-94
2022/11/06 01:53:12;;;;;;;1.07;0.90;;;24.30;60.40;;;;;;5098179;28;20475;-95
2022/11/06 01:55:43;;;;;;;1.30;1.17;;;24.50;60.60;;;;;;5097189;28;20443;-95
2022/11/06 01:58:14;;;;;;;1.33;1.00;;;24.30;60.40;;;;;;5096841;28;20476;-94
2022/11/06 02:00:42;;;;;;;1.47;1.20;;;24.30;60.40;;;;;;5097270;28;20797;-95
2022/11/06 02:03:11;;;;;;;2.40;1.10;;;24.20;60.20;;;;;;5096965;28;20447;-95
2022/11/06 02:05:38;;;;;;;1.60;1.20;;;24.20;60.20;;;;;;5096914;28;20994;-95
2022/11/06 02:08:06;;;;;;;1.40;1.20;;;24.20;60.10;;;;;;5096991;28;20443;-94
2022/11/06 02:10:35;;;;;;;1.40;1.30;;;24.20;60.20;;;;;;5079154;28;20444;-94
2022/11/06 02:13:16;;;;;;;1.33;1.23;;;24.20;60.10;;;;;;5096980;28;20449;-95
2022/11/06 02:15:48;;;;;;;1.27;1.17;;;24.20;60.00;;;;;;5096894;28;20441;-95
2022/11/06 02:18:50;;;;;;;1.37;1.27;;;24.20;60.10;;;;;;5097716;28;20481;-95
2022/11/06 02:21:47;;;;;;;1.20;1.10;;;24.30;60.30;;;;;;5096942;28;20527;-95
2022/11/06 02:24:33;;;;;;;1.50;1.40;;;24.20;60.20;;;;;;5096837;28;20801;-93
2022/11/06 02:27:11;;;;;;;1.30;1.20;;;24.20;60.20;;;;;;5096401;28;20440;-94
2022/11/06 02:29:47;;;;;;;1.20;1.10;;;24.30;61.20;;;;;;5097088;28;20433;-93
2022/11/06 02:32:19;;;;;;;1.53;1.20;;;24.20;60.20;;;;;;5096630;28;20437;-96
2022/11/06 02:34:47;;;;;;;1.40;1.20;;;24.20;60.20;;;;;;5096769;28;20441;-95
2022/11/06 02:37:17;;;;;;;1.30;1.10;;;24.20;60.20;;;;;;5096467;28;20576;-95
2022/11/06 02:39:47;;;;;;;1.10;1.00;;;24.40;60.40;;;;;;5096468;28;20487;-95
2022/11/06 02:42:18;;;;;;;1.80;1.20;;;24.20;60.10;;;;;;5096464;28;20989;-93
2022/11/06 02:44:50;;;;;;;1.23;1.13;;;24.20;60.20;;;;;;5096388;28;20510;-94
2022/11/06 02:47:19;;;;;;;1.90;1.27;;;24.20;60.20;;;;;;5096054;28;20507;-94
2022/11/06 02:49:49;;;;;;;1.27;1.17;;;24.40;60.30;;;;;;5096485;28;20445;-94
2022/11/06 02:52:21;;;;;;;1.30;1.20;;;24.20;60.00;;;;;;5096244;28;20777;-92
2022/11/06 02:54:52;;;;;;;1.50;1.17;;;24.20;60.10;;;;;;5096334;28;20482;-94
2022/11/06 02:57:23;;;;;;;1.20;0.93;;;24.20;60.10;;;;;;5096310;28;20437;-95
2022/11/06 02:59:56;;;;;;;1.27;1.17;;;24.20;60.10;;;;;;5096375;28;20839;-94
2022/11/06 03:02:28;;;;;;;1.97;1.03;;;24.20;60.00;;;;;;5078938;28;20441;-93
2022/11/06 03:05:02;;;;;;;1.50;1.10;;;24.20;60.10;;;;;;5096609;28;20442;-94
2022/11/06 03:07:34;;;;;;;1.20;1.10;;;24.30;60.20;;;;;;5096037;28;20441;-95
2022/11/06 03:10:01;;;;;;;1.20;1.10;;;24.20;60.10;;;;;;5095794;28;20444;-94
2022/11/06 03:12:32;;;;;;;1.30;1.20;;;24.10;60.00;;;;;;5095982;28;20540;-95
2022/11/06 03:15:06;;;;;;;1.27;1.17;;;24.20;60.00;;;;;;5095766;28;20464;-93
2022/11/06 03:17:43;;;;;;;1.30;1.20;;;24.40;60.40;;;;;;5096158;28;20434;-95
2022/11/06 03:20:20;;;;;;;1.00;0.90;;;24.20;60.00;;;;;;5095413;28;20428;-95
2022/11/06 03:22:54;;;;;;;1.20;1.10;;;24.10;60.10;;;;;;5095455;28;20475;-94
2022/11/06 03:25:24;;;;;;;1.50;1.10;;;24.40;60.30;;;;;;5095724;28;20436;-94
2022/11/06 03:28:02;;;;;;;1.50;0.90;;;24.10;59.90;;;;;;5095405;28;20802;-95
2022/11/06 03:30:29;;;;;;;1.30;1.20;;;24.10;60.00;;;;;;5095658;28;20469;-94
2022/11/06 03:33:04;;;;;;;1.30;1.20;;;24.10;60.00;;;;;;5095469;28;20505;-94
2022/11/06 03:35:37;;;;;;;1.10;0.90;;;24.10;60.00;;;;;;5095473;28;20440;-94
2022/11/06 03:38:10;;;;;;;1.20;1.10;;;24.10;60.00;;;;;;5095078;28;20468;-95
2022/11/06 03:40:43;;;;;;;1.10;0.90;;;24.10;60.00;;;;;;5095326;28;20430;-94
2022/11/06 03:43:15;;;;;;;1.33;1.23;;;24.10;60.00;;;;;;5094737;28;20475;-94
2022/11/06 03:45:45;;;;;;;1.10;1.00;;;24.10;60.00;;;;;;5094989;28;20429;-95
2022/11/06 03:48:18;;;;;;;1.10;0.87;;;24.10;60.00;;;;;;5095125;28;20459;-95
2022/11/06 03:50:51;;;;;;;1.10;0.90;;;24.10;60.00;;;;;;5095028;28;20915;-93
2022/11/06 03:53:23;;;;;;;1.03;0.90;;;24.10;60.00;;;;;;5095139;28;20429;-95
2022/11/06 03:55:55;;;;;;;1.23;1.13;;;24.10;60.00;;;;;;5095428;28;20428;-94
2022/11/06 03:58:25;;;;;;;1.20;1.00;;;24.10;60.00;;;;;;5095026;28;20810;-94
2022/11/06 04:00:56;;;;;;;1.10;0.90;;;24.10;60.00;;;;;;5094569;28;20470;-95
2022/11/06 04:03:27;;;;;;;1.10;1.00;;;24.10;60.00;;;;;;5094980;28;20444;-94
2022/11/06 04:06:00;;;;;;;1.20;1.10;;;24.10;60.00;;;;;;5094591;28;20919;-92
2022/11/06 04:14:05;;;;;;;1.20;0.90;;;24.10;60.00;;;;;;5094718;28;20764;-95
2022/11/06 04:16:34;;;;;;;1.27;1.10;;;24.00;60.00;;;;;;5094757;28;20506;-95
2022/11/06 04:19:02;;;;;;;1.07;0.83;;;24.20;60.10;;;;;;5094701;28;20487;-94
2022/11/06 04:21:48;;;;;;;1.40;1.00;;;24.10;60.00;;;;;;5094680;28;20871;-94
2022/11/06 04:27:23;;;;;;;1.03;0.90;;;24.10;59.90;;;;;;5094837;28;20457;-94
2022/11/06 04:30:03;;;;;;;1.10;1.00;;;24.10;60.00;;;;;;5094203;28;20460;-95
2022/11/06 04:32:40;;;;;;;1.30;1.20;;;24.10;60.00;;;;;;5094688;28;20434;-95
2022/11/06 04:35:16;;;;;;;1.10;1.00;;;24.10;60.00;;;;;;5094657;28;20485;-93
2022/11/06 04:37:50;;;;;;;1.40;1.00;;;24.10;60.00;;;;;;5094284;28;20435;-92
2022/11/06 04:40:26;;;;;;;1.10;0.90;;;24.00;59.90;;;;;;5094204;28;20536;-95
2022/11/06 04:42:59;;;;;;;1.20;1.10;;;24.10;59.90;;;;;;5094193;28;21024;-95
2022/11/06 04:45:32;;;;;;;1.13;1.00;;;24.00;59.90;;;;;;5094489;28;20440;-93
2022/11/06 04:48:00;;;;;;;1.10;0.90;;;24.10;59.90;;;;;;5094310;28;20432;-94
2022/11/06 04:50:29;;;;;;;1.40;0.90;;;24.00;59.90;;;;;;5094576;28;20945;-94
2022/11/06 04:52:57;;;;;;;1.07;0.90;;;24.00;59.90;;;;;;5095023;28;20444;-94
2022/11/06 04:55:25;;;;;;;1.13;0.90;;;24.00;59.90;;;;;;5094024;28;20949;-94
2022/11/06 04:57:52;;;;;;;1.03;0.90;;;24.10;59.90;;;;;;5094156;28;20441;-94
2022/11/06 05:00:19;;;;;;;1.37;1.27;;;24.10;59.90;;;;;;5094218;28;20615;-95
2022/11/06 05:02:47;;;;;;;1.20;1.10;;;24.10;59.90;;;;;;5094278;28;20440;-94
2022/11/06 05:05:14;;;;;;;1.00;0.80;;;24.00;59.80;;;;;;5094328;28;20445;-95
2022/11/06 05:07:40;;;;;;;1.17;1.07;;;24.00;59.90;;;;;;5094548;28;20446;-95
2022/11/06 05:10:09;;;;;;;1.07;0.93;;;24.00;59.90;;;;;;5094980;28;20527;-94
2022/11/06 05:12:35;;;;;;;1.20;1.10;;;24.00;59.90;;;;;;5098233;28;20452;-95
2022/11/06 05:15:02;;;;;;;1.60;1.10;;;24.00;59.90;;;;;;5098464;28;20436;-92
2022/11/06 05:17:29;;;;;;;1.10;0.97;;;24.00;60.00;;;;;;5098033;28;20435;-96
2022/11/06 05:19:57;;;;;;;1.10;0.90;;;24.00;59.90;;;;;;5098029;28;20503;-94
2022/11/06 05:25:08;;;;;;;1.30;1.10;;;24.00;59.90;;;;;;5098165;28;20489;-95
2022/11/06 05:27:35;;;;;;;1.20;0.83;;;24.00;59.90;;;;;;5097699;28;20949;-94
2022/11/06 05:30:02;;;;;;;1.10;1.00;;;24.00;59.90;;;;;;5097944;28;20460;-96
2022/11/06 05:32:29;;;;;;;1.10;1.00;;;24.00;59.90;;;;;;5097762;28;20437;-94
2022/11/06 05:34:57;;;;;;;1.00;0.90;;;24.00;59.90;;;;;;5097909;28;20493;-94
2022/11/06 05:37:24;;;;;;;1.20;1.00;;;24.00;59.90;;;;;;5097694;28;20440;-94
2022/11/06 05:39:51;;;;;;;1.00;0.90;;;24.00;59.90;;;;;;5097367;28;20491;-93
2022/11/06 05:42:18;;;;;;;1.37;1.00;;;24.00;59.80;;;;;;5097198;28;20477;-94
2022/11/06 05:44:45;;;;;;;1.00;0.87;;;24.10;59.90;;;;;;5097725;28;20420;-95
2022/11/06 05:47:12;;;;;;;1.33;1.20;;;24.00;59.80;;;;;;5097531;28;20806;-94
2022/11/06 05:49:39;;;;;;;1.33;1.10;;;24.00;59.80;;;;;;5097486;28;20438;-95
2022/11/06 05:52:07;;;;;;;1.10;1.00;;;24.00;59.80;;;;;;5097199;28;20530;-94
2022/11/06 05:54:34;;;;;;;1.10;0.90;;;24.00;59.80;;;;;;5097362;28;20436;-91
2022/11/06 05:57:01;;;;;;;1.10;0.90;;;24.00;59.90;;;;;;5097381;28;20474;-94
2022/11/06 05:59:28;;;;;;;1.00;0.90;;;24.00;59.90;;;;;;5097286;28;20877;-95
2022/11/06 06:01:55;;;;;;;1.20;1.10;;;24.00;59.80;;;;;;5097278;28;20449;-95
2022/11/06 06:04:21;;;;;;;2.90;0.90;;;24.00;59.90;;;;;;5097281;28;20445;-95
2022/11/06 06:06:48;;;;;;;1.20;1.00;;;24.00;59.80;;;;;;5096915;28;20439;-94
2022/11/06 06:09:16;;;;;;;1.20;0.90;;;24.00;59.80;;;;;;5097068;28;20441;-94
2022/11/06 06:11:43;;;;;;;1.00;0.90;;;24.00;59.80;;;;;;5097193;28;20440;-95
2022/11/06 06:14:10;;;;;;;1.13;1.03;;;24.00;59.80;;;;;;5097328;28;20441;-95
2022/11/06 06:16:37;;;;;;;1.00;0.80;;;24.00;59.80;;;;;;5097386;28;20437;-95
2022/11/06 06:19:04;;;;;;;1.00;0.87;;;23.90;59.80;;;;;;5096588;28;20476;-95
2022/11/06 06:21:31;;;;;;;1.00;0.70;;;24.00;59.90;;;;;;5096368;28;20440;-95
2022/11/06 06:23:58;;;;;;;1.10;0.90;;;24.00;59.90;;;;;;5096459;28;20448;-94
2022/11/06 06:26:26;;;;;;;1.30;1.00;;;24.00;59.90;;;;;;5096756;28;20535;-94
2022/11/06 06:28:53;;;;;;;1.00;0.80;;;24.00;59.80;;;;;;5097393;28;20462;-95
2022/11/06 06:31:20;;;;;;;1.07;0.87;;;23.90;59.70;;;;;;5096667;28;20465;-95
2022/11/06 06:33:47;;;;;;;1.00;0.90;;;23.90;59.80;;;;;;5096572;28;20442;-95
2022/11/06 06:36:14;;;;;;;1.00;0.90;;;23.90;59.70;;;;;;5096751;28;20443;-94
2022/11/06 06:38:41;;;;;;;1.00;0.80;;;23.90;59.70;;;;;;5096167;28;20435;-95
2022/11/06 06:41:09;;;;;;;1.00;0.80;;;23.90;59.70;;;;;;5096615;28;20529;-95
2022/11/06 06:43:37;;;;;;;1.10;1.00;;;23.90;59.80;;;;;;5095938;28;20481;-94
2022/11/06 06:46:06;;;;;;;1.33;0.90;;;23.90;59.80;;;;;;5096081;28;20595;-93
2022/11/06 06:48:34;;;;;;;1.10;0.90;;;23.90;59.70;;;;;;5096359;28;20451;-95
2022/11/06 06:51:01;;;;;;;1.00;0.80;;;23.90;59.70;;;;;;5096344;28;20449;-94
2022/11/06 06:53:29;;;;;;;1.00;0.70;;;23.90;59.70;;;;;;5096259;28;20441;-95
2022/11/06 06:55:58;;;;;;;1.03;0.80;;;24.10;59.90;;;;;;5096679;28;20442;-94
2022/11/06 06:58:25;;;;;;;1.30;1.00;;;23.90;59.80;;;;;;5096155;28;20495;-95
2022/11/06 07:00:54;;;;;;;1.47;1.10;;;23.90;59.80;;;;;;5096061;28;20492;-94
2022/11/06 07:03:21;;;;;;;1.10;1.00;;;23.90;59.80;;;;;;5095977;28;20960;-95
2022/11/06 07:05:48;;;;;;;1.00;0.80;;;23.90;59.80;;;;;;5095749;28;20538;-95
2022/11/06 07:08:14;;;;;;;1.00;0.70;;;23.90;59.70;;;;;;5096027;28;20480;-95
2022/11/06 07:10:41;;;;;;;1.00;0.80;;;23.90;59.80;;;;;;5095977;28;20438;-94
2022/11/06 07:13:08;;;;;;;1.10;0.87;;;23.90;59.80;;;;;;5096304;28;20437;-95
2022/11/06 07:15:35;;;;;;;1.10;0.97;;;23.90;59.80;;;;;;5095731;28;20440;-95
2022/11/06 07:18:05;;;;;;;1.00;0.87;;;23.90;59.80;;;;;;5095875;28;20438;-95
2022/11/06 07:20:32;;;;;;;1.00;0.80;;;23.90;59.80;;;;;;5095571;28;20505;-94
2022/11/06 07:22:59;;;;;;;1.10;0.90;;;23.90;59.80;;;;;;5095746;28;20840;-95
2022/11/06 07:25:26;;;;;;;1.10;0.90;;;23.90;59.80;;;;;;5095637;28;20577;-93
2022/11/06 07:27:54;;;;;;;1.27;0.90;;;24.10;59.90;;;;;;5095632;28;20492;-94
2022/11/06 07:30:21;;;;;;;1.10;0.80;;;23.90;59.70;;;;;;5095355;28;20502;-96
2022/11/06 07:32:47;;;;;;;1.10;0.90;;;23.80;59.70;;;;;;5095308;28;20437;-94
2022/11/06 07:35:16;;;;;;;1.00;0.80;;;23.80;59.70;;;;;;5094638;28;20448;-86
2022/11/06 07:37:43;;;;;;;1.23;1.10;;;23.90;59.80;;;;;;5095439;28;20442;-94
2022/11/06 07:40:11;;;;;;;1.30;0.97;;;24.10;59.90;;;;;;5095262;28;20489;-93
2022/11/06 07:42:37;;;;;;;1.40;1.10;;;23.80;59.70;;;;;;5095081;28;20476;-95
2022/11/06 07:45:05;;;;;;;1.20;0.83;;;24.00;59.90;;;;;;5095211;28;20477;-94
2022/11/06 07:47:32;;;;;;;1.10;0.80;;;23.80;59.70;;;;;;5095795;28;20449;-94
2022/11/06 07:49:59;;;;;;;1.00;0.87;;;23.80;59.70;;;;;;5094873;28;20460;-85
2022/11/06 07:52:27;;;;;;;1.10;0.90;;;23.80;59.70;;;;;;5095109;28;20443;-94
2022/11/06 07:54:54;;;;;;;1.10;0.93;;;23.80;59.70;;;;;;5094759;28;20805;-87
2022/11/06 07:57:21;;;;;;;1.20;0.80;;;23.80;59.70;;;;;;5094645;28;20444;-94
2022/11/06 07:59:48;;;;;;;1.13;1.03;;;23.80;59.70;;;;;;5094370;28;20582;-94
2022/11/06 08:02:16;;;;;;;1.03;0.90;;;23.80;59.70;;;;;;5094717;28;20475;-95
2022/11/06 08:04:42;;;;;;;1.43;0.97;;;24.00;59.90;;;;;;5094710;28;20973;-95
2022/11/06 08:07:09;;;;;;;1.00;0.80;;;23.80;59.70;;;;;;5095673;28;20443;-92
2022/11/06 08:09:37;;;;;;;1.00;0.80;;;23.80;59.80;;;;;;5095524;28;20442;-96
2022/11/06 08:12:05;;;;;;;1.20;0.83;;;23.80;59.70;;;;;;5095134;28;20456;-89
2022/11/06 08:14:32;;;;;;;1.73;1.00;;;23.80;59.70;;;;;;5094863;28;20861;-94
2022/11/06 08:16:58;;;;;;;1.10;0.90;;;23.80;59.70;;;;;;5094812;28;20526;-94
2022/11/06 08:19:25;;;;;;;1.10;1.00;;;23.80;59.70;;;;;;5087058;28;20469;-88
2022/11/06 08:21:52;;;;;;;1.10;0.83;;;23.80;59.80;;;;;;5074042;28;20440;-86
2022/11/06 08:24:19;;;;;;;1.90;1.20;;;23.60;59.40;;;;;;5073618;28;20446;-87
2022/11/06 08:26:47;;;;;;;1.10;0.80;;;23.80;58.70;;;;;;5073031;28;20482;-87
2022/11/06 08:29:14;;;;;;;1.10;0.83;;;23.80;58.40;;;;;;5073109;28;20529;-86
2022/11/06 08:31:41;;;;;;;1.20;1.00;;;23.90;58.40;;;;;;5073434;28;20445;-86
2022/11/06 08:34:08;;;;;;;1.97;0.90;;;24.00;58.40;;;;;;5073325;28;20446;-86
2022/11/06 08:36:38;;;;;;;1.63;0.80;;;24.00;58.20;;;;;;5073027;28;20445;-86
2022/11/06 08:39:05;;;;;;;1.30;1.00;;;24.10;58.20;;;;;;5073036;28;20450;-88
2022/11/06 08:41:31;;;;;;;1.00;0.80;;;24.10;58.10;;;;;;5073781;28;20990;-92
2022/11/06 08:44:00;;;;;;;1.40;0.90;;;24.40;58.30;;;;;;5073635;28;20941;-92
2022/11/06 08:46:27;;;;;;;1.10;0.90;;;24.30;58.20;;;;;;5077138;28;20488;-92
2022/11/06 08:48:54;;;;;;;1.30;0.90;;;24.50;58.30;;;;;;5078109;28;20515;-94
2022/11/06 08:51:20;;;;;;;1.67;1.00;;;24.60;58.50;;;;;;5079110;28;20456;-93
2022/11/06 08:53:47;;;;;;;1.13;0.90;;;24.80;58.50;;;;;;5077772;28;20529;-93
2022/11/06 08:56:14;;;;;;;3.83;0.80;;;25.00;58.50;;;;;;5077754;28;20448;-92
2022/11/06 08:58:41;;;;;;;1.20;1.00;;;25.10;58.40;;;;;;5077972;28;20442;-92
2022/11/06 09:01:09;;;;;;;1.93;1.80;;;25.20;58.50;;;;;;5077080;28;20490;-92
2022/11/06 09:03:36;;;;;;;1.57;0.80;;;25.20;58.30;;;;;;5077398;28;20444;-91
2022/11/06 09:06:06;;;;;;;1.10;1.00;;;25.30;58.20;;;;;;5077359;28;21071;-92
2022/11/06 09:08:33;;;;;;;1.20;0.90;;;25.50;58.10;;;;;;5077378;28;20440;-91
2022/11/06 09:10:59;;;;;;;1.40;0.80;;;25.80;57.90;;;;;;5077080;28;20450;-91
2022/11/06 09:13:27;;;;;;;1.63;0.97;;;26.00;57.40;;;;;;5077449;28;20441;-92
2022/11/06 09:15:53;;;;;;;1.30;1.00;;;26.40;57.40;;;;;;5077434;28;20858;-91
2022/11/06 09:18:21;;;;;;;1.37;1.07;;;26.70;60.60;;;;;;5077359;28;20536;-91
2022/11/06 09:20:48;;;;;;;1.80;1.00;;;27.10;57.00;;;;;;5076732;28;20480;-91
2022/11/06 09:23:15;;;;;;;2.17;1.20;;;27.30;55.80;;;;;;5077165;28;20847;-91
2022/11/06 09:25:42;;;;;;;2.23;0.90;;;27.50;55.50;;;;;;5076605;28;20442;-92
2022/11/06 09:28:08;;;;;;;3.27;1.13;;;27.50;55.40;;;;;;5076985;28;20438;-91
2022/11/06 09:30:36;;;;;;;2.30;1.00;;;27.50;55.60;;;;;;5076928;28;20461;-91
2022/11/06 09:33:03;;;;;;;1.30;1.10;;;27.10;55.60;;;;;;5059200;28;20939;-94
2022/11/06 09:35:33;;;;;;;1.30;0.83;;;26.90;55.80;;;;;;5076679;28;20438;-92
2022/11/06 09:38:03;;;;;;;1.20;0.80;;;26.70;56.00;;;;;;5077131;28;20432;-92
2022/11/06 09:40:34;;;;;;;1.37;0.80;;;26.70;57.00;;;;;;5076770;28;20532;-92
2022/11/06 09:43:11;;;;;;;8.07;1.10;;;26.30;57.10;;;;;;5076545;28;20476;-93
2022/11/06 09:45:39;;;;;;;2.60;1.10;;;26.10;57.10;;;;;;5059981;28;20462;-82
2022/11/06 09:48:15;;;;;;;1.83;1.00;;;25.80;56.40;;;;;;5076649;28;20835;-94
2022/11/06 09:50:50;;;;;;;1.50;1.20;;;25.70;56.30;;;;;;5060878;28;20985;-96
2022/11/06 09:53:22;;;;;;;6.03;1.30;;;25.60;56.70;;;;;;5077313;28;20439;-93
2022/11/06 09:55:50;;;;;;;3.57;1.50;;;25.50;56.80;;;;;;5077158;28;20444;-85
2022/11/06 09:58:21;;;;;;;2.13;1.00;;;25.40;57.60;;;;;;5075073;28;21021;-92
2022/11/06 10:00:51;;;;;;;7.23;2.53;;;25.40;57.80;;;;;;5076585;28;20849;-93
2022/11/06 10:03:23;;;;;;;2.03;1.10;;;25.40;57.90;;;;;;5076502;28;20441;-92
2022/11/06 10:06:05;;;;;;;2.97;0.80;;;25.40;57.90;;;;;;5076470;28;20911;-93
2022/11/06 10:08:33;;;;;;;3.33;1.30;;;25.50;57.90;;;;;;5077759;28;20452;-92
2022/11/06 10:11:04;;;;;;;2.90;1.00;;;25.40;58.00;;;;;;5076447;28;20525;-93
2022/11/06 10:13:45;;;;;;;2.53;1.20;;;25.50;58.30;;;;;;5076487;28;20935;-94
2022/11/06 10:16:38;;;;;;;1.40;1.13;;;25.50;59.00;;;;;;5076958;28;20430;-92
2022/11/06 10:19:11;;;;;;;1.83;1.10;;;25.70;58.60;;;;;;5076907;28;20435;-93
2022/11/06 10:21:48;;;;;;;2.03;1.80;;;25.50;58.50;;;;;;5076681;28;20485;-93
2022/11/06 10:24:23;;;;;;;1.20;0.90;;;25.40;58.60;;;;;;5077485;28;20771;-94
2022/11/06 10:26:54;;;;;;;2.00;1.10;;;25.40;58.70;;;;;;5076801;28;20438;-91
2022/11/06 10:29:47;;;;;;;2.27;1.10;;;25.40;58.70;;;;;;5076325;28;20870;-93
2022/11/06 10:32:33;;;;;;;1.20;0.80;;;25.40;58.70;;;;;;5076595;28;20526;-93
2022/11/06 10:35:03;;;;;;;2.50;1.13;;;25.30;58.50;;;;;;5071218;28;20448;-93
2022/11/06 10:37:39;;;;;;;3.77;1.13;;;25.20;58.90;;;;;;5076267;28;20447;-93
2022/11/06 10:40:15;;;;;;;2.43;1.50;;;25.20;59.00;;;;;;5076375;28;21035;-93
2022/11/06 10:42:45;;;;;;;2.50;1.40;;;25.10;59.10;;;;;;5076285;28;20471;-92
2022/11/06 10:45:14;;;;;;;3.40;1.00;;;25.10;59.30;;;;;;5075892;28;20447;-93
2022/11/06 10:47:45;;;;;;;3.10;1.10;;;25.10;59.40;;;;;;5076122;28;20436;-92
2022/11/06 10:50:14;;;;;;;3.23;1.60;;;25.10;59.20;;;;;;5075500;28;20945;-93
2022/11/06 10:52:54;;;;;;;1.70;1.10;;;25.10;59.20;;;;;;5076123;28;20449;-92
2022/11/06 10:55:48;;;;;;;1.60;1.20;;;25.10;59.50;;;;;;5075673;28;20442;-93
2022/11/06 10:58:18;;;;;;;2.57;1.80;;;25.10;59.50;;;;;;5075464;28;20933;-90
2022/11/06 11:00:45;;;;;;;4.13;1.47;;;25.20;59.70;;;;;;5074977;28;20494;-85
2022/11/06 11:03:22;;;;;;;3.67;0.90;;;25.30;59.90;;;;;;5074949;28;20445;-86
2022/11/06 11:05:49;;;;;;;5.80;1.60;;;25.20;58.60;;;;;;5074880;28;20438;-84
2022/11/06 11:08:41;;;;;;;2.03;1.37;;;25.10;58.00;;;;;;5074413;28;20447;-85
2022/11/06 11:11:22;;;;;;;3.10;1.93;;;25.10;57.80;;;;;;5074398;28;20453;-85
2022/11/06 11:13:51;;;;;;;2.13;1.17;;;25.30;58.00;;;;;;5074562;28;20440;-85
2022/11/06 11:16:20;;;;;;;1.90;1.17;;;25.00;58.00;;;;;;5074658;28;20790;-86
2022/11/06 11:18:49;;;;;;;2.80;1.27;;;25.10;58.30;;;;;;5074498;28;20894;-87
2022/11/06 11:21:24;;;;;;;1.97;0.93;;;25.00;58.50;;;;;;5074107;28;20483;-84
2022/11/06 11:24:09;;;;;;;1.40;1.07;;;25.00;58.60;;;;;;5074488;28;20839;-83
2022/11/06 11:26:40;;;;;;;3.50;1.17;;;24.90;58.40;;;;;;5074155;28;20444;-85
2022/11/06 11:29:15;;;;;;;6.37;1.23;;;24.80;58.40;;;;;;5074329;28;20447;-87
2022/11/06 11:31:47;;;;;;;3.10;1.20;;;24.80;58.40;;;;;;5076865;28;20446;-91
2022/11/06 11:34:20;;;;;;;1.27;1.00;;;24.80;58.40;;;;;;5077007;28;20943;-93
2022/11/06 11:36:51;;;;;;;1.93;1.10;;;24.80;58.50;;;;;;5077390;28;20470;-93
2022/11/06 11:39:22;;;;;;;2.57;1.23;;;24.80;58.50;;;;;;5077401;28;20435;-91
2022/11/06 11:41:50;;;;;;;1.27;1.17;;;24.80;58.60;;;;;;5076282;28;20540;-83
2022/11/06 11:44:19;;;;;;;3.67;1.20;;;24.70;58.40;;;;;;5085549;28;20525;-87
2022/11/06 11:46:48;;;;;;;2.53;1.77;;;24.70;58.40;;;;;;5095506;28;20839;-85
2022/11/06 11:49:35;;;;;;;5.53;1.00;;;24.70;58.30;;;;;;5098907;28;20970;-88
2022/11/06 11:52:04;;;;;;;2.73;1.03;;;24.70;58.90;;;;;;5097640;28;20470;-88
2022/11/06 11:54:35;;;;;;;2.30;1.17;;;24.60;58.90;;;;;;5097226;28;20437;-83
2022/11/06 11:57:04;;;;;;;7.50;1.50;;;24.70;58.90;;;;;;5094918;28;20488;-83
2022/11/06 11:59:36;;;;;;;5.67;1.43;;;24.70;59.10;;;;;;5096641;28;20458;-85
2022/11/06 12:02:12;;;;;;;3.10;1.23;;;24.70;59.00;;;;;;5095437;28;20566;-83
2022/11/06 12:04:41;;;;;;;3.50;1.30;;;24.70;58.50;;;;;;5095647;28;20438;-83
2022/11/06 12:07:22;;;;;;;1.40;1.03;;;24.60;58.40;;;;;;5095628;28;20940;-84
2022/11/06 12:09:50;;;;;;;1.77;1.07;;;24.80;58.50;;;;;;5095641;28;20445;-83
2022/11/06 12:12:22;;;;;;;1.47;1.10;;;24.60;58.50;;;;;;5095394;28;20451;-82
2022/11/06 12:15:05;;;;;;;2.67;1.63;;;24.60;58.50;;;;;;5095112;28;20453;-84
2022/11/06 12:17:33;;;;;;;5.80;1.63;;;24.60;58.40;;;;;;5095486;28;20449;-82
2022/11/06 12:20:02;;;;;;;1.87;1.30;;;24.50;58.40;;;;;;5094755;28;20872;-88
2022/11/06 12:22:35;;;;;;;6.23;2.10;;;24.60;58.40;;;;;;5095608;28;20486;-88
2022/11/06 12:25:10;;;;;;;1.23;1.10;;;24.60;58.50;;;;;;5095504;28;20939;-87
2022/11/06 12:27:41;;;;;;;1.83;1.30;;;24.70;58.90;;;;;;5095371;28;20443;-82
2022/11/06 12:30:11;;;;;;;3.77;1.40;;;24.60;59.40;;;;;;5095082;28;20493;-84
2022/11/06 12:32:51;;;;;;;5.40;1.70;;;24.60;58.70;;;;;;5095606;28;20511;-84
2022/11/06 12:35:24;;;;;;;2.27;1.30;;;24.60;58.80;;;;;;5095874;28;20436;-83
2022/11/06 12:38:03;;;;;;;5.53;2.03;;;24.60;58.30;;;;;;5095553;28;20477;-85
2022/11/06 12:40:35;;;;;;;4.00;1.40;;;24.70;58.30;;;;;;5095962;28;20433;-85
2022/11/06 12:43:16;;;;;;;2.60;1.37;;;24.70;58.30;;;;;;5094292;28;20474;-84
2022/11/06 12:45:59;;;;;;;3.27;1.70;;;24.70;58.20;;;;;;5093501;28;20436;-84
2022/11/06 12:48:43;;;;;;;2.80;1.17;;;24.70;57.90;;;;;;5093697;28;20449;-85
2022/11/06 12:51:19;;;;;;;9.30;1.60;;;24.60;58.30;;;;;;5093588;28;20482;-93
2022/11/06 12:53:57;;;;;;;4.30;1.50;;;24.60;58.70;;;;;;5095025;28;20912;-92
2022/11/06 12:56:36;;;;;;;4.40;2.40;;;24.80;58.90;;;;;;5094456;28;20433;-93
2022/11/06 12:59:19;;;;;;;3.10;1.40;;;24.70;59.80;;;;;;5094004;28;20433;-84
2022/11/06 13:02:00;;;;;;;1.73;1.13;;;24.60;60.30;;;;;;5097052;28;20909;-95
2022/11/06 13:04:48;;;;;;;5.63;1.63;;;24.60;60.40;;;;;;5095000;28;20447;-96
2022/11/06 13:07:40;;;;;;;5.63;1.40;;;24.70;60.20;;;;;;5094962;28;20516;-91
2022/11/06 13:10:26;;;;;;;4.53;1.63;;;24.70;60.80;;;;;;5096646;28;20426;-96
2022/11/06 13:13:15;;;;;;;3.13;1.50;;;24.60;60.20;;;;;;5099619;28;20506;-95
2022/11/06 13:15:51;;;;;;;6.47;1.50;;;24.60;60.70;;;;;;5099287;28;20483;-95
2022/11/06 13:18:24;;;;;;;6.77;2.03;;;24.80;61.10;;;;;;5094401;28;20521;-94
2022/11/06 13:20:57;;;;;;;2.40;1.53;;;24.70;61.10;;;;;;5094070;28;20469;-94